createdAt,value
2023-04-26T00:00:19.891Z,98436.97
2023-04-26T00:03:21.990Z,98431.34
2023-04-26T00:06:23.955Z,98435.69
2023-04-26T00:09:25.845Z,98440.75
2023-04-26T00:12:27.901Z,98446.47
2023-04-26T00:15:29.917Z,98443.78
2023-04-26T00:18:31.984Z,98439.09
2023-04-26T00:21:33.924Z,98441.75
2023-04-26T00:24:36.178Z,98451.63
2023-04-26T00:27:38.055Z,98447.66
2023-04-26T00:30:47.452Z,98453.38
2023-04-26T00:33:51.098Z,98460.25
2023-04-26T00:36:53.348Z,98454.97
2023-04-26T00:39:57.411Z,98458.75
2023-04-26T00:42:59.492Z,98456.19
2023-04-26T00:46:01.774Z,98457.25
2023-04-26T00:49:03.763Z,98464.63
2023-04-26T00:52:06.119Z,98468.94
2023-04-26T00:55:08.956Z,98460.59
2023-04-26T00:58:11.141Z,98460.41
2023-04-26T01:01:13.588Z,98468.25
2023-04-26T01:04:17.836Z,98462.91
2023-04-26T01:07:20.664Z,98466.22
2023-04-26T01:10:22.954Z,98468.72
2023-04-26T01:13:26.285Z,98463.56
2023-04-26T01:16:28.394Z,98469.91
2023-04-26T01:19:30.285Z,98467.41
2023-04-26T01:22:33.279Z,98467.75
2023-04-26T01:25:35.733Z,98469.97
2023-04-26T01:28:37.677Z,98457.97
2023-04-26T01:31:40.126Z,98465.81
2023-04-26T01:34:41.981Z,98468.84
2023-04-26T01:37:46.350Z,98467.03
2023-04-26T01:40:48.208Z,98466.38
2023-04-26T01:43:50.531Z,98468.22
2023-04-26T01:46:53.438Z,98463.88
2023-04-26T01:49:55.351Z,98466.09
2023-04-26T01:52:57.274Z,98462.75
2023-04-26T01:56:02.925Z,98471.78
2023-04-26T01:59:06.019Z,98478.97
2023-04-26T02:02:08.371Z,98476.47
2023-04-26T02:05:13.265Z,98478.13
2023-04-26T02:08:15.090Z,98480.31
2023-04-26T02:11:17.052Z,98482.16
2023-04-26T02:14:19.105Z,98482.97
2023-04-26T02:17:21.512Z,98487.84
2023-04-26T02:20:23.522Z,98490.16
2023-04-26T02:23:25.604Z,98495.69
2023-04-26T02:26:27.510Z,98494.84
2023-04-26T02:29:42.272Z,98494.53
2023-04-26T02:32:46.288Z,98504.53
2023-04-26T02:35:48.587Z,98504.53
2023-04-26T02:38:51.384Z,98502.16
2023-04-26T02:41:53.353Z,98512.69
2023-04-26T02:44:55.597Z,98515.34
2023-04-26T02:47:58.641Z,98505.84
2023-04-26T02:51:00.633Z,98510.84
2023-04-26T02:54:04.548Z,98507.81
2023-04-26T02:57:08.427Z,98519.16
2023-04-26T03:00:11.774Z,98515.47
2023-04-26T03:03:14.831Z,98516.63
2023-04-26T03:06:16.803Z,98520.78
2023-04-26T03:09:18.705Z,98529.09
2023-04-26T03:12:20.806Z,98523.41
2023-04-26T03:15:23.524Z,98528.41
2023-04-26T03:18:25.477Z,98526.69
2023-04-26T03:21:28.099Z,98522.28
2023-04-26T03:24:30.992Z,98524.25
2023-04-26T03:27:32.831Z,98527.53
2023-04-26T03:30:35.819Z,98523.13
2023-04-26T03:33:37.824Z,98523.56
2023-04-26T03:36:40.145Z,98528.28
2023-04-26T03:39:42.242Z,98531.38
2023-04-26T03:42:45.996Z,98549.78
2023-04-26T03:45:49.544Z,98547.59
2023-04-26T03:48:51.737Z,98555.09
2023-04-26T03:51:53.842Z,98555.88
2023-04-26T03:54:55.832Z,98556.03
2023-04-26T03:57:57.748Z,98559.22
2023-04-26T04:00:59.677Z,98558.41
2023-04-26T04:04:02.069Z,98560.69
2023-04-26T04:07:04.881Z,98569.63
2023-04-26T04:10:10.139Z,98571.75
2023-04-26T04:13:12.187Z,98572.75
2023-04-26T04:16:14.090Z,98575.19
2023-04-26T04:19:16.534Z,98573.84
2023-04-26T04:22:19.036Z,98582.69
2023-04-26T04:25:22.788Z,98581.53
2023-04-26T04:28:25.065Z,98582.44
2023-04-26T04:31:27.209Z,98575.09
2023-04-26T04:34:29.302Z,98576.78
2023-04-26T04:37:33.655Z,98575.16
2023-04-26T04:40:35.902Z,98571.00
2023-04-26T04:43:38.083Z,98583.44
2023-04-26T04:46:41.732Z,98586.53
2023-04-26T04:49:43.704Z,98587.34
2023-04-26T04:52:46.330Z,98583.97
2023-04-26T04:55:49.392Z,98584.31
2023-04-26T04:58:52.560Z,98586.75
2023-04-26T05:01:56.888Z,98589.56
2023-04-26T05:04:59.065Z,98589.50
2023-04-26T05:08:01.322Z,98590.25
2023-04-26T05:11:03.215Z,98588.66
2023-04-26T05:14:05.320Z,98591.06
2023-04-26T05:17:07.344Z,98594.03
2023-04-26T05:20:11.111Z,98597.31
2023-04-26T05:23:13.240Z,98600.06
2023-04-26T05:26:18.391Z,98602.03
2023-04-26T05:29:20.336Z,98613.09
2023-04-26T05:32:34.477Z,98604.66
2023-04-26T05:36:02.585Z,98615.84
2023-04-26T05:39:06.500Z,98608.97
2023-04-26T05:42:08.617Z,98610.72
2023-04-26T05:45:11.815Z,98613.94
2023-04-26T05:48:14.128Z,98612.94
2023-04-26T05:51:16.123Z,98611.38
2023-04-26T05:54:18.111Z,98617.41
2023-04-26T05:57:20.171Z,98613.88
2023-04-26T06:00:23.689Z,98620.47
2023-04-26T06:03:26.082Z,98622.38
2023-04-26T06:06:29.030Z,98625.56
2023-04-26T06:09:34.082Z,98625.44
2023-04-26T06:12:35.941Z,98626.78
2023-04-26T06:15:37.955Z,98626.66
2023-04-26T06:18:40.537Z,98629.63
2023-04-26T06:21:42.373Z,98635.75
2023-04-26T06:24:44.244Z,98636.94
2023-04-26T06:27:46.164Z,98636.03
2023-04-26T06:30:48.759Z,98642.78
2023-04-26T06:33:50.989Z,98642.25
2023-04-26T06:36:53.516Z,98642.81
2023-04-26T06:39:57.564Z,98639.22
2023-04-26T06:43:01.473Z,98638.94
2023-04-26T06:46:12.132Z,98647.09
2023-04-26T06:49:14.696Z,98645.06
2023-04-26T06:52:16.700Z,98643.38
2023-04-26T06:55:19.077Z,98647.44
2023-04-26T06:58:21.408Z,98656.78
2023-04-26T07:01:23.308Z,98655.41
2023-04-26T07:04:25.554Z,98658.22
2023-04-26T07:07:27.673Z,98655.97
2023-04-26T07:10:29.521Z,98658.28
2023-04-26T07:13:31.744Z,98658.78
2023-04-26T07:16:33.831Z,98660.88
2023-04-26T07:19:36.009Z,98662.16
2023-04-26T07:22:38.569Z,98661.78
2023-04-26T07:25:41.013Z,98655.03
2023-04-26T07:28:42.748Z,98662.69
2023-04-26T07:31:45.393Z,98657.22
2023-04-26T07:34:47.321Z,98658.06
2023-04-26T07:37:49.118Z,98661.31
2023-04-26T07:40:51.716Z,98657.22
2023-04-26T07:43:54.019Z,98660.22
2023-04-26T07:46:56.146Z,98659.38
2023-04-26T07:49:58.093Z,98660.28
2023-04-26T07:53:00.068Z,98665.84
2023-04-26T07:56:05.918Z,98661.03
2023-04-26T07:59:07.816Z,98670.69
2023-04-26T08:02:09.890Z,98665.84
2023-04-26T08:05:12.022Z,98664.84
2023-04-26T08:08:13.966Z,98666.44
2023-04-26T08:11:16.112Z,98674.47
2023-04-26T08:14:18.024Z,98669.22
2023-04-26T08:17:19.986Z,98661.75
2023-04-26T08:20:21.858Z,98669.75
2023-04-26T08:23:23.706Z,98672.00
2023-04-26T08:26:25.630Z,98667.81
2023-04-26T08:29:28.050Z,98666.66
2023-04-26T08:32:33.028Z,98660.06
2023-04-26T08:35:34.965Z,98657.59
2023-04-26T08:38:36.915Z,98664.50
2023-04-26T08:41:49.830Z,98660.91
2023-04-26T08:44:53.270Z,98656.31
2023-04-26T08:48:03.928Z,98657.31
2023-04-26T08:51:09.330Z,98649.72
2023-04-26T08:54:12.152Z,98653.06
2023-04-26T08:57:14.863Z,98651.97
2023-04-26T09:00:18.320Z,98645.91
2023-04-26T09:03:23.588Z,98648.09
2023-04-26T09:06:28.277Z,98643.16
2023-04-26T09:09:42.715Z,98643.72
2023-04-26T09:12:44.576Z,98647.28
2023-04-26T09:15:48.573Z,98648.66
2023-04-26T09:18:57.323Z,98653.31
2023-04-26T09:21:59.304Z,98650.31
2023-04-26T09:25:04.023Z,98647.31
2023-04-26T09:28:20.807Z,98644.75
2023-04-26T09:31:42.769Z,98637.03
2023-04-26T09:34:47.063Z,98632.19
2023-04-26T09:38:11.083Z,98634.41
2023-04-26T09:41:14.019Z,98641.00
2023-04-26T09:44:23.349Z,98637.94
2023-04-26T09:47:25.444Z,98629.72
2023-04-26T09:50:29.156Z,98618.47
2023-04-26T09:53:47.360Z,98645.25
2023-04-26T09:57:01.869Z,98635.44
2023-04-26T10:00:09.366Z,98635.75
2023-04-26T10:03:12.238Z,98642.66
2023-04-26T10:06:14.431Z,98646.19
2023-04-26T10:09:16.334Z,98646.19
2023-04-26T10:12:20.293Z,98640.16
2023-04-26T10:15:22.762Z,98641.25
2023-04-26T10:18:24.759Z,98633.88
2023-04-26T10:21:31.606Z,98637.16
2023-04-26T10:24:35.282Z,98634.94
2023-04-26T10:27:55.354Z,98639.09
2023-04-26T10:30:59.445Z,98626.72
2023-04-26T10:34:22.716Z,98625.59
2023-04-26T10:37:24.650Z,98633.59
2023-04-26T10:40:31.051Z,98625.94
2023-04-26T10:43:33.045Z,98634.41
2023-04-26T10:46:37.356Z,98637.94
2023-04-26T10:49:47.093Z,98645.25
2023-04-26T10:53:04.201Z,98643.31
2023-04-26T10:56:06.919Z,98640.44
2023-04-26T11:02:52.833Z,98635.84
2023-04-26T11:05:55.639Z,98623.88
2023-04-26T11:09:00.187Z,98624.69
2023-04-26T11:12:04.635Z,98626.06
2023-04-26T11:15:07.324Z,98624.06
2023-04-26T11:18:09.300Z,98617.47
2023-04-26T11:21:13.077Z,98613.38
2023-04-26T11:24:16.002Z,98623.81
2023-04-26T11:27:17.891Z,98612.59
2023-04-26T11:30:20.127Z,98614.63
2023-04-26T11:33:25.080Z,98623.75
2023-04-26T11:36:27.291Z,98617.13
2023-04-26T11:39:29.275Z,98603.09
2023-04-26T11:42:31.314Z,98608.56
2023-04-26T11:45:35.171Z,98610.81
2023-04-26T11:48:39.047Z,98599.06
2023-04-26T11:51:41.699Z,98594.66
2023-04-26T11:54:44.523Z,98598.91
2023-04-26T11:57:46.547Z,98594.59
2023-04-26T12:01:04.363Z,98594.88
2023-04-26T12:04:10.613Z,98595.38
2023-04-26T12:07:12.765Z,98582.59
2023-04-26T12:10:16.454Z,98579.59
2023-04-26T12:13:19.806Z,98578.78
2023-04-26T12:16:26.608Z,98582.38
2023-04-26T12:19:33.114Z,98577.16
2023-04-26T12:22:35.205Z,98579.34
2023-04-26T12:25:42.313Z,98584.53
2023-04-26T12:28:44.152Z,98579.47
2023-04-26T12:31:46.891Z,98580.94
2023-04-26T12:34:48.952Z,98584.03
2023-04-26T12:37:53.997Z,98581.53
2023-04-26T12:40:56.034Z,98580.41
2023-04-26T12:43:58.356Z,98581.53
2023-04-26T12:47:00.178Z,98582.94
2023-04-26T12:50:02.107Z,98587.34
2023-04-26T12:53:04.460Z,98576.66
2023-04-26T12:56:06.940Z,98584.34
2023-04-26T12:59:11.801Z,98577.81
2023-04-26T13:02:13.814Z,98575.47
2023-04-26T13:05:15.901Z,98584.53
2023-04-26T13:08:17.881Z,98572.78
2023-04-26T13:11:19.900Z,98574.72
2023-04-26T13:14:23.360Z,98570.03
2023-04-26T13:17:26.663Z,98578.00
2023-04-26T13:20:30.841Z,98570.84
2023-04-26T13:23:32.980Z,98571.91
2023-04-26T13:26:34.851Z,98572.16
2023-04-26T13:29:36.991Z,98566.72
2023-04-26T13:32:38.864Z,98567.00
2023-04-26T13:35:40.989Z,98563.44
2023-04-26T13:38:45.598Z,98567.84
2023-04-26T13:41:47.550Z,98571.69
2023-04-26T13:44:51.495Z,98566.75
2023-04-26T13:47:53.393Z,98573.81
2023-04-26T13:50:58.987Z,98578.41
2023-04-26T13:54:00.973Z,98576.94
2023-04-26T13:57:04.003Z,98573.13
2023-04-26T14:00:08.270Z,98576.66
2023-04-26T14:03:13.572Z,98579.91
2023-04-26T14:06:16.517Z,98572.16
2023-04-26T14:09:18.584Z,98580.84
2023-04-26T14:12:20.641Z,98586.09
2023-04-26T14:15:22.869Z,98578.72
2023-04-26T14:18:24.715Z,98569.00
2023-04-26T14:21:26.912Z,98574.66
2023-04-26T14:24:28.745Z,98571.94
2023-04-26T14:27:30.738Z,98567.66
2023-04-26T14:30:32.670Z,98569.16
2023-04-26T14:33:35.149Z,98577.59
2023-04-26T14:36:37.065Z,98569.81
2023-04-26T14:39:39.045Z,98574.38
2023-04-26T14:42:45.839Z,98572.75
2023-04-26T14:45:48.044Z,98572.22
2023-04-26T14:48:50.289Z,98565.66
2023-04-26T14:51:53.689Z,98566.13
2023-04-26T14:54:55.786Z,98568.56
2023-04-26T14:57:57.678Z,98576.59
2023-04-26T15:00:59.736Z,98562.88
2023-04-26T15:04:01.951Z,98565.38
2023-04-26T15:10:08.683Z,98566.31
2023-04-26T15:13:10.814Z,98565.31
2023-04-26T15:16:12.813Z,98566.28
2023-04-26T15:19:14.838Z,98567.84
2023-04-26T15:22:16.688Z,98571.22
2023-04-26T15:25:18.805Z,98576.31
2023-04-26T15:28:20.684Z,98577.84
2023-04-26T15:31:22.700Z,98570.91
2023-04-26T15:34:25.374Z,98576.00
2023-04-26T15:37:27.257Z,98574.22
2023-04-26T15:40:29.232Z,98574.34
2023-04-26T15:43:31.036Z,98569.31
2023-04-26T15:46:32.938Z,98574.16
2023-04-26T15:49:34.948Z,98573.03
2023-04-26T15:52:39.536Z,98570.97
2023-04-26T15:55:41.959Z,98568.94
2023-04-26T15:58:47.366Z,98564.22
2023-04-26T16:01:49.251Z,98571.88
2023-04-26T16:04:51.417Z,98578.56
2023-04-26T16:07:53.399Z,98584.94
2023-04-26T16:11:02.149Z,98587.22
2023-04-26T16:14:04.114Z,98596.63
2023-04-26T16:17:06.072Z,98599.75
2023-04-26T16:20:08.861Z,98598.25
2023-04-26T16:23:11.251Z,98605.66
2023-04-26T16:26:13.050Z,98605.94
2023-04-26T16:29:15.191Z,98597.66
2023-04-26T16:32:17.327Z,98607.50
2023-04-26T16:35:19.284Z,98617.34
2023-04-26T16:38:22.230Z,98615.50
2023-04-26T16:41:24.669Z,98625.56
2023-04-26T16:44:26.509Z,98620.28
2023-04-26T16:47:28.385Z,98620.75
2023-04-26T16:50:30.242Z,98625.50
2023-04-26T16:53:32.719Z,98626.31
2023-04-26T16:56:34.639Z,98628.41
2023-04-26T16:59:36.686Z,98629.94
2023-04-26T17:02:40.579Z,98635.97
2023-04-26T17:05:47.841Z,98646.34
2023-04-26T17:08:49.735Z,98647.88
2023-04-26T17:11:51.669Z,98654.59
2023-04-26T17:14:53.556Z,98644.06
2023-04-26T17:17:55.475Z,98649.84
2023-04-26T17:20:57.817Z,98655.13
2023-04-26T17:23:59.613Z,98654.16
2023-04-26T17:27:01.564Z,98652.97
2023-04-26T17:30:03.748Z,98658.72
2023-04-26T17:33:07.622Z,98654.69
2023-04-26T17:36:09.715Z,98657.84
2023-04-26T17:39:11.626Z,98661.31
2023-04-26T17:42:13.464Z,98667.41
2023-04-26T17:45:15.540Z,98667.50
2023-04-26T17:48:17.467Z,98664.66
2023-04-26T17:51:19.370Z,98667.22
2023-04-26T17:54:22.046Z,98670.16
2023-04-26T17:57:24.140Z,98669.78
2023-04-26T18:00:26.396Z,98663.53
2023-04-26T18:03:31.501Z,98666.09
2023-04-26T18:06:33.630Z,98667.38
2023-04-26T18:09:35.522Z,98664.75
2023-04-26T18:12:38.200Z,98669.19
2023-04-26T18:15:40.086Z,98669.03
2023-04-26T18:18:42.050Z,98670.53
2023-04-26T18:21:43.917Z,98668.28
2023-04-26T18:24:47.121Z,98667.91
2023-04-26T18:27:49.096Z,98662.13
2023-04-26T18:30:56.538Z,98666.38
2023-04-26T18:33:58.400Z,98665.41
2023-04-26T18:37:00.276Z,98659.84
2023-04-26T18:40:02.212Z,98665.69
2023-04-26T18:43:04.157Z,98667.19
2023-04-26T18:46:07.190Z,98667.00
2023-04-26T18:49:09.589Z,98666.38
2023-04-26T18:52:11.486Z,98662.25
2023-04-26T18:55:14.306Z,98666.00
2023-04-26T18:58:16.807Z,98669.38
2023-04-26T19:01:18.674Z,98664.41
2023-04-26T19:04:20.986Z,98672.97
2023-04-26T19:07:23.758Z,98669.66
2023-04-26T19:10:25.778Z,98663.69
2023-04-26T19:13:27.700Z,98661.38
2023-04-26T19:16:29.736Z,98661.38
2023-04-26T19:19:32.024Z,98662.66
2023-04-26T19:22:33.927Z,98661.22
2023-04-26T19:25:36.018Z,98664.34
2023-04-26T19:28:38.298Z,98669.59
2023-04-26T19:31:40.275Z,98675.88
2023-04-26T19:34:42.178Z,98672.97
2023-04-26T19:37:44.073Z,98673.19
2023-04-26T19:40:46.289Z,98672.56
2023-04-26T19:43:48.161Z,98669.09
2023-04-26T19:46:50.177Z,98673.28
2023-04-26T19:49:53.111Z,98673.09
2023-04-26T19:52:54.999Z,98672.72
2023-04-26T19:55:56.916Z,98665.25
2023-04-26T19:58:58.724Z,98668.41
2023-04-26T20:02:00.657Z,98668.00
2023-04-26T20:05:02.539Z,98664.28
2023-04-26T20:08:04.589Z,98672.41
2023-04-26T20:11:07.242Z,98670.34
2023-04-26T20:14:09.044Z,98665.41
2023-04-26T20:17:11.043Z,98657.53
2023-04-26T20:20:13.149Z,98660.66
2023-04-26T20:23:15.098Z,98658.63
2023-04-26T20:26:17.023Z,98655.94
2023-04-26T20:29:18.947Z,98655.53
2023-04-26T20:32:21.002Z,98654.31
2023-04-26T22:48:44.057Z,98678.44
2023-04-26T22:51:57.343Z,98671.00
2023-04-26T22:55:08.234Z,98678.88
2023-04-26T22:58:10.718Z,98675.16
2023-04-26T23:01:12.674Z,98685.28
2023-04-26T23:04:14.684Z,98688.38
2023-04-26T23:07:16.784Z,98678.03
2023-04-26T23:10:18.810Z,98678.25
2023-04-26T23:13:21.625Z,98669.31
2023-04-26T23:16:24.101Z,98676.78
2023-04-26T23:19:26.804Z,98679.47
2023-04-26T23:22:28.725Z,98676.16
2023-04-26T23:25:30.715Z,98676.97
2023-04-26T23:28:32.677Z,98681.53
2023-04-26T23:31:34.683Z,98679.25
2023-04-26T23:34:36.591Z,98673.22
2023-04-26T23:37:38.584Z,98679.66
2023-04-26T23:40:40.700Z,98671.97
2023-04-26T23:43:42.563Z,98676.09
2023-04-26T23:46:44.483Z,98680.84
2023-04-26T23:49:46.429Z,98676.91
2023-04-26T23:52:48.406Z,98675.81
2023-04-26T23:55:50.445Z,98679.09
2023-04-26T23:58:52.355Z,98677.19
